Time;durP1;ratioP1;P1;durP2;ratioP2;P2;SDS_P1;SDS_P2;PMS_P1;PMS_P2;Temp;Humidity;BMP_temperature;BMP_pressure;BME280_temperature;BME280_humidity;BME280_pressure;Samples;Min_cycle;Max_cycle;Signal;HPM_P1;HPM_P2
2022/01/11 00:05:28;;;;;;;28.58;14.73;;;-0.60;99.90;;;;;;2602771;54;20849;31
2022/01/11 00:08:44;;;;;;;;;;;;;;;;;;;;;
2022/01/11 00:19:06;;;;;;;24.02;13.15;;;-0.60;99.90;;;;;;2701797;39;21082;31
2022/01/11 00:27:49;;;;;;;27.45;14.60;;;-0.60;99.90;;;;;;2603311;54;20027;31
2022/01/11 00:36:21;;;;;;;28.90;14.35;;;-0.60;99.90;;;;;;2603483;54;20809;31
2022/01/11 00:42:48;;;;;;;37.28;18.90;;;-0.50;99.90;;;;;;2603380;54;20821;31
2022/01/11 00:45:56;;;;;;;41.40;21.17;;;-0.60;99.90;;;;;;2603163;54;20030;31
2022/01/11 00:57:49;;;;;;;49.75;26.20;;;-0.80;99.90;;;;;;2621247;46;20811;31
2022/01/11 01:00:35;;;;;;;;;;;;;;;;;;;;;
2022/01/11 01:06:10;;;;;;;55.40;27.35;;;-0.90;99.90;;;;;;2602397;54;20085;31
2022/01/11 01:11:53;;;;;;;56.33;29.00;;;-1.00;99.90;;;;;;2603310;54;20769;31
2022/01/11 01:14:44;;;;;;;59.20;27.85;;;-1.00;99.90;;;;;;2603144;54;20889;31
2022/01/11 01:17:22;;;;;;;64.20;30.30;;;-1.00;99.90;;;;;;2603204;54;20032;31
2022/01/11 01:28:14;;;;;;;54.28;27.77;;;-1.20;99.90;;;;;;2603063;54;20854;31
2022/01/11 01:31:05;;;;;;;;;;;-1.20;99.90;;;;;;2603397;54;20030;31
2022/01/11 01:33:45;;;;;;;62.17;29.52;;;-1.30;99.90;;;;;;2602964;54;20834;31
2022/01/11 01:36:21;;;;;;;57.55;30.17;;;-1.40;99.90;;;;;;2603260;54;20152;31
2022/01/11 01:41:45;;;;;;;58.67;30.50;;;-1.40;99.90;;;;;;2603126;54;20023;31
2022/01/11 01:45:08;;;;;;;60.80;29.60;;;-1.50;99.90;;;;;;2603051;54;20196;31
2022/01/11 01:47:57;;;;;;;62.20;30.63;;;-1.50;99.90;;;;;;2603242;54;20042;31
2022/01/11 01:50:41;;;;;;;61.67;31.67;;;-1.60;99.90;;;;;;2602892;54;20079;31
2022/01/11 01:53:16;;;;;;;63.88;31.17;;;-1.60;99.90;;;;;;2603126;54;20914;31
2022/01/11 01:55:59;;;;;;;65.32;34.13;;;-1.60;99.90;;;;;;2720370;39;21147;31
2022/01/11 01:58:56;;;;;;;66.50;32.50;;;-1.70;99.90;;;;;;2602861;54;20883;31
2022/01/11 02:04:19;;;;;;;65.35;32.20;;;-1.80;99.90;;;;;;2602696;54;20823;31
2022/01/11 02:06:55;;;;;;;69.72;33.72;;;-1.80;99.90;;;;;;2603041;54;20071;31
2022/01/11 02:09:34;;;;;;;65.93;32.42;;;-1.90;99.90;;;;;;2602312;54;20045;31
2022/01/11 02:12:11;;;;;;;73.35;35.30;;;-1.90;99.90;;;;;;2603046;54;20035;31
2022/01/11 02:14:45;;;;;;;70.80;34.50;;;-1.90;99.90;;;;;;2602824;54;20863;31
2022/01/11 02:17:24;;;;;;;67.82;33.08;;;-2.00;99.90;;;;;;2602743;54;20026;31
2022/01/11 02:20:17;;;;;;;66.18;31.55;;;-2.00;99.90;;;;;;2602379;54;20134;31
2022/01/11 02:23:03;;;;;;;67.65;34.00;;;-2.00;99.90;;;;;;2602825;54;20856;31
2022/01/11 02:25:38;;;;;;;65.35;32.97;;;-2.00;99.90;;;;;;2603131;54;20030;31
2022/01/11 02:28:19;;;;;;;68.18;33.40;;;-2.00;99.90;;;;;;2700776;39;21214;31
2022/01/11 02:33:46;;;;;;;70.85;35.60;;;-2.00;99.90;;;;;;2602705;54;20982;31
2022/01/11 02:39:32;;;;;;;73.72;36.20;;;-2.10;99.90;;;;;;2621255;47;20046;31
2022/01/11 02:42:31;;;;;;;66.90;35.05;;;-2.10;99.90;;;;;;2602850;54;20949;31
2022/01/11 02:50:34;;;;;;;75.33;36.70;;;-2.20;99.90;;;;;;2603597;54;20752;31
2022/01/11 02:53:10;;;;;;;78.20;38.45;;;-2.20;99.90;;;;;;2603568;54;20245;31
2022/01/11 02:55:53;;;;;;;85.90;41.57;;;-2.30;99.90;;;;;;2603719;54;20031;31
2022/01/11 02:58:33;;;;;;;81.82;39.42;;;-2.30;99.90;;;;;;2603505;54;20876;31
2022/01/11 03:01:20;;;;;;;86.03;41.05;;;-2.30;99.90;;;;;;2603975;54;20026;31
2022/01/11 03:03:56;;;;;;;80.60;39.50;;;-2.30;99.90;;;;;;2603703;54;20026;31
2022/01/11 03:06:35;;;;;;;83.60;39.83;;;-2.30;99.90;;;;;;2621828;46;20873;31
2022/01/11 03:09:11;;;;;;;81.93;40.40;;;-2.40;99.90;;;;;;2603758;54;21332;31
2022/01/11 03:14:25;;;;;;;72.85;36.00;;;-2.40;99.90;;;;;;2603559;54;20039;31
2022/01/11 03:17:00;;;;;;;70.10;35.47;;;-2.40;99.90;;;;;;2603347;54;20089;31
2022/01/11 03:19:34;;;;;;;75.07;38.65;;;-2.50;99.90;;;;;;2603531;54;20030;31
2022/01/11 03:24:40;;;;;;;67.80;33.83;;;-2.50;99.90;;;;;;2603528;54;20022;31
2022/01/11 03:27:15;;;;;;;73.60;36.80;;;-2.60;99.90;;;;;;2603526;54;20085;31
2022/01/11 03:29:53;;;;;;;72.13;37.47;;;-2.60;99.90;;;;;;2603375;54;20907;31
2022/01/11 03:32:28;;;;;;;77.63;36.97;;;-2.70;99.90;;;;;;2603406;54;20790;31
2022/01/11 03:35:17;;;;;;;66.55;34.63;;;-2.80;99.90;;;;;;2603581;54;20027;31
2022/01/11 03:37:53;;;;;;;65.25;33.28;;;-2.80;99.90;;;;;;2622054;46;20034;31
2022/01/11 03:40:31;;;;;;;62.97;34.03;;;-2.80;99.90;;;;;;2622389;46;20883;31
2022/01/11 03:43:09;;;;;;;75.80;38.22;;;-2.90;99.90;;;;;;2603599;54;20246;31
2022/01/11 03:45:47;;;;;;;71.68;36.92;;;-2.90;99.90;;;;;;2603506;54;20026;31
2022/01/11 03:51:05;;;;;;;64.20;32.50;;;-3.10;99.90;;;;;;2621703;46;20019;31
2022/01/11 03:53:57;;;;;;;75.75;37.00;;;-3.10;99.90;;;;;;2603357;54;20900;31
2022/01/11 03:56:35;;;;;;;70.22;36.38;;;-3.10;99.90;;;;;;2621986;46;20040;31
2022/01/11 03:59:21;;;;;;;59.83;30.90;;;-3.20;99.90;;;;;;2603512;54;20053;31
2022/01/11 04:01:57;;;;;;;65.10;32.05;;;-3.20;99.90;;;;;;2606868;46;20030;31
2022/01/11 04:07:10;;;;;;;75.15;35.70;;;-3.30;99.90;;;;;;2603533;54;20034;31
2022/01/11 04:09:46;;;;;;;72.78;34.65;;;-3.40;99.90;;;;;;2603377;54;20038;31
2022/01/11 04:12:22;;;;;;;68.73;34.07;;;-3.40;99.90;;;;;;2603373;54;20810;31
2022/01/11 04:14:59;;;;;;;61.45;31.35;;;-3.50;99.90;;;;;;2603455;54;20042;31
2022/01/11 04:17:36;;;;;;;67.35;33.58;;;-3.50;99.90;;;;;;2603339;54;20027;31
2022/01/11 04:20:15;;;;;;;77.15;35.97;;;-3.60;99.90;;;;;;2603742;54;20116;31
2022/01/11 04:22:53;;;;;;;75.80;36.53;;;-3.60;99.90;;;;;;2603557;54;20034;31
2022/01/11 04:25:31;;;;;;;65.00;31.13;;;-3.70;99.90;;;;;;2621614;46;20737;31
2022/01/11 04:28:07;;;;;;;65.93;33.27;;;-3.70;99.90;;;;;;2603363;54;20052;31
2022/01/11 04:30:42;;;;;;;62.25;32.13;;;-3.70;99.90;;;;;;2602653;54;20852;31
2022/01/11 04:33:20;;;;;;;63.30;30.25;;;-3.80;99.90;;;;;;2603319;54;20078;31
2022/01/11 04:35:57;;;;;;;68.30;34.45;;;-3.80;99.90;;;;;;2603241;54;20992;31
2022/01/11 04:38:35;;;;;;;65.80;29.88;;;-3.90;99.90;;;;;;2603571;54;20026;31
2022/01/11 04:41:16;;;;;;;62.70;30.53;;;-3.90;99.90;;;;;;2603302;54;20037;31
2022/01/11 04:43:57;;;;;;;66.55;32.20;;;-3.90;99.90;;;;;;2612999;46;20049;31
2022/01/11 04:46:31;;;;;;;65.60;33.00;;;-3.90;99.90;;;;;;2603225;54;20097;31
2022/01/11 04:51:38;;;;;;;66.43;33.33;;;-4.00;99.90;;;;;;2621584;46;20062;31
2022/01/11 04:54:16;;;;;;;74.53;33.60;;;-4.10;99.90;;;;;;2702039;39;21146;31
2022/01/11 04:56:51;;;;;;;74.22;34.90;;;-4.10;99.90;;;;;;2603197;54;20820;31
2022/01/11 05:01:56;;;;;;;70.55;33.45;;;-4.20;99.90;;;;;;2603516;54;20033;31
2022/01/11 05:07:04;;;;;;;67.03;32.70;;;-4.20;99.90;;;;;;2621409;46;20027;31
2022/01/11 05:09:42;;;;;;;71.90;35.90;;;-4.30;99.90;;;;;;2603107;54;20097;31
2022/01/11 05:12:16;;;;;;;62.97;32.70;;;-4.30;99.90;;;;;;2773421;31;21302;31
2022/01/11 05:14:50;;;;;;;59.15;28.55;;;-4.30;99.90;;;;;;2621917;46;20061;31
2022/01/11 05:17:26;;;;;;;64.55;30.95;;;-4.40;99.90;;;;;;2607832;46;20787;31
2022/01/11 05:20:02;;;;;;;72.43;33.92;;;-4.40;99.90;;;;;;2603121;54;20078;31
2022/01/11 05:22:38;;;;;;;66.00;32.80;;;-4.40;99.90;;;;;;2621440;46;20136;31
2022/01/11 05:25:15;;;;;;;68.77;32.40;;;-4.50;99.90;;;;;;2603209;54;20029;31
2022/01/11 05:27:53;;;;;;;59.08;28.88;;;-4.50;99.90;;;;;;2603080;54;20235;31
2022/01/11 05:30:29;;;;;;;66.00;31.77;;;-4.60;99.90;;;;;;2602320;54;20050;31
2022/01/11 05:33:06;;;;;;;70.47;33.35;;;-4.60;99.90;;;;;;2603257;54;20069;31
2022/01/11 05:35:48;;;;;;;65.37;31.87;;;-4.60;99.90;;;;;;2621446;46;20586;31
2022/01/11 05:38:24;;;;;;;73.18;33.67;;;-4.60;99.90;;;;;;2603144;54;20816;31
2022/01/11 05:41:04;;;;;;;72.00;32.00;;;-4.60;99.90;;;;;;2603031;54;20124;31
2022/01/11 05:43:39;;;;;;;74.50;34.80;;;-4.60;99.90;;;;;;2603231;54;20032;31
2022/01/11 05:46:15;;;;;;;74.57;35.53;;;-4.60;99.90;;;;;;2603047;54;20026;31
2022/01/11 05:48:53;;;;;;;85.43;41.57;;;-4.60;99.90;;;;;;2602345;54;22360;31
2022/01/11 05:51:28;;;;;;;108.95;54.60;;;-4.60;99.90;;;;;;2602172;54;20365;31
2022/01/11 05:54:04;;;;;;;111.20;53.63;;;-4.60;99.90;;;;;;2602889;54;20031;31
2022/01/11 05:56:43;;;;;;;109.65;52.58;;;-4.60;99.90;;;;;;2621578;47;20861;31
2022/01/11 05:59:19;;;;;;;104.53;45.85;;;-4.60;99.90;;;;;;2603002;54;20020;31
2022/01/11 06:01:54;;;;;;;;;;;-4.60;99.90;;;;;;2603115;54;20037;31
2022/01/11 06:04:29;;;;;;;92.63;43.22;;;-4.60;99.90;;;;;;2602899;54;20727;31
2022/01/11 06:07:03;;;;;;;96.05;44.38;;;-4.70;99.90;;;;;;2602879;54;20026;31
2022/01/11 06:09:40;;;;;;;92.93;44.47;;;-4.70;99.90;;;;;;2603119;54;20935;31
2022/01/11 06:14:47;;;;;;;101.07;45.30;;;-4.70;99.90;;;;;;2603100;54;20026;31
2022/01/11 06:17:25;;;;;;;86.97;40.30;;;-4.70;99.90;;;;;;2602835;54;20039;31
2022/01/11 06:19:57;;;;;;;98.30;44.25;;;-4.80;99.90;;;;;;2603084;54;20038;31
2022/01/11 06:22:38;;;;;;;90.30;42.22;;;-4.80;99.90;;;;;;2622564;46;20843;31
2022/01/11 06:25:14;;;;;;;87.83;40.60;;;-4.80;99.90;;;;;;2603787;54;20090;31
2022/01/11 06:27:56;;;;;;;91.20;42.97;;;-4.80;99.90;;;;;;2603725;54;20256;31
2022/01/11 06:30:35;;;;;;;89.93;41.38;;;-4.80;99.90;;;;;;2621692;46;20919;31
2022/01/11 06:33:14;;;;;;;88.20;42.58;;;-4.90;99.90;;;;;;2603558;54;20792;31
2022/01/11 06:35:51;;;;;;;83.07;41.67;;;-4.90;99.90;;;;;;2603677;54;20057;31
2022/01/11 06:38:28;;;;;;;87.35;39.33;;;-4.90;99.90;;;;;;2603786;54;20839;31
2022/01/11 06:41:03;;;;;;;80.68;36.65;;;-4.90;99.90;;;;;;2603702;54;20760;31
2022/01/11 06:43:39;;;;;;;80.85;39.40;;;-4.90;99.90;;;;;;2603751;54;20874;31
2022/01/11 06:46:14;;;;;;;91.28;40.75;;;-5.00;99.90;;;;;;2603707;54;20026;31
2022/01/11 06:48:59;;;;;;;95.65;44.17;;;-5.00;99.90;;;;;;2603683;54;20052;31
2022/01/11 06:54:08;;;;;;;121.80;53.00;;;-5.00;99.90;;;;;;2603973;54;20031;31
2022/01/11 06:56:44;;;;;;;105.10;48.13;;;-5.00;99.90;;;;;;2603745;54;20918;31
2022/01/11 06:59:22;;;;;;;100.03;45.28;;;-5.00;99.90;;;;;;2603780;54;20033;31
2022/01/11 07:02:03;;;;;;;106.20;49.25;;;-5.10;99.90;;;;;;2603687;54;20027;31
2022/01/11 07:05:18;;;;;;;146.17;68.83;;;-5.10;99.90;;;;;;2603658;54;20038;31
2022/01/11 07:07:54;;;;;;;150.30;70.07;;;-5.10;99.90;;;;;;2603454;54;20843;31
2022/01/11 07:10:34;;;;;;;137.43;65.80;;;-5.10;99.90;;;;;;2602930;54;20030;31
2022/01/11 07:13:13;;;;;;;112.00;51.70;;;-5.10;99.90;;;;;;2602789;54;20903;31
2022/01/11 07:15:46;;;;;;;122.00;58.47;;;-5.00;99.90;;;;;;2715370;39;22385;31
2022/01/11 07:18:23;;;;;;;138.35;61.35;;;-5.00;99.90;;;;;;2603766;54;20033;31
2022/01/11 07:21:05;;;;;;;116.78;52.80;;;-4.90;99.90;;;;;;2603625;54;20030;31
2022/01/11 07:23:41;;;;;;;100.72;47.65;;;-4.80;99.90;;;;;;2621705;46;20038;31
2022/01/11 07:26:19;;;;;;;95.20;45.57;;;-4.80;99.90;;;;;;2603605;54;20841;31
2022/01/11 07:28:55;;;;;;;104.93;48.33;;;-4.80;99.90;;;;;;2603620;54;20234;31
2022/01/11 07:31:31;;;;;;;110.55;47.90;;;-4.70;99.90;;;;;;2603251;54;20858;31
2022/01/11 07:36:44;;;;;;;108.10;50.85;;;-4.30;99.90;;;;;;2603743;54;19935;31
2022/01/11 07:39:22;;;;;;;111.00;51.17;;;-3.80;99.90;;;;;;2603752;54;20054;31
2022/01/11 07:41:58;;;;;;;115.88;49.17;;;-3.40;99.90;;;;;;2603681;54;20026;31
2022/01/11 07:44:51;;;;;;;121.93;49.38;;;-2.90;99.90;;;;;;2621983;46;20899;31
2022/01/11 07:47:28;;;;;;;96.40;47.10;;;-2.40;99.90;;;;;;2603399;54;20863;31
2022/01/11 07:50:06;;;;;;;98.50;47.75;;;-2.00;99.90;;;;;;2603552;54;20034;31
2022/01/11 07:52:40;;;;;;;96.88;47.10;;;-1.40;99.90;;;;;;2622243;46;20891;31
2022/01/11 07:55:19;;;;;;;105.53;49.80;;;-1.00;99.90;;;;;;2603527;54;20045;31
2022/01/11 07:57:54;;;;;;;100.07;47.92;;;-0.60;99.90;;;;;;2603406;54;20026;31
2022/01/11 08:00:31;;;;;;;100.47;48.50;;;-0.20;99.90;;;;;;2603413;54;20148;31
2022/01/11 08:03:11;;;;;;;97.72;48.70;;;0.10;99.90;;;;;;2603565;54;20033;31
2022/01/11 08:06:00;;;;;;;99.83;49.67;;;0.40;99.90;;;;;;2603216;54;20058;31
2022/01/11 08:08:37;;;;;;;102.05;50.03;;;0.70;99.90;;;;;;2603342;54;20910;31
2022/01/11 08:13:50;;;;;;;96.00;51.13;;;1.10;99.90;;;;;;2603445;54;20890;31
2022/01/11 08:16:28;;;;;;;107.28;54.05;;;1.40;99.90;;;;;;2603315;54;20042;31
2022/01/11 08:19:07;;;;;;;94.95;50.50;;;1.60;99.90;;;;;;2621645;46;20049;31
2022/01/11 08:21:47;;;;;;;108.28;53.30;;;1.80;99.90;;;;;;2603376;54;20763;31
2022/01/11 08:24:24;;;;;;;123.80;58.60;;;2.10;99.90;;;;;;2603377;54;20917;31
2022/01/11 08:27:02;;;;;;;114.88;56.92;;;2.30;99.90;;;;;;2603487;54;20246;31
2022/01/11 08:29:57;;;;;;;99.90;52.70;;;2.40;99.90;;;;;;2603520;54;20034;31
2022/01/11 08:32:33;;;;;;;98.68;52.92;;;2.70;99.90;;;;;;2621429;46;20847;31
2022/01/11 08:37:50;;;;;;;97.32;54.00;;;2.80;99.90;;;;;;2603261;54;20026;31
2022/01/11 08:40:27;;;;;;;100.20;52.90;;;2.90;99.90;;;;;;2603311;54;20145;31
2022/01/11 08:43:11;;;;;;;102.13;54.85;;;3.00;99.90;;;;;;2602842;54;20073;31
2022/01/11 08:45:53;;;;;;;103.43;55.90;;;2.90;99.90;;;;;;2607469;46;20042;31
2022/01/11 08:48:29;;;;;;;101.07;52.17;;;2.70;99.90;;;;;;2603389;54;20927;31
2022/01/11 08:51:15;;;;;;;110.95;57.95;;;2.70;99.90;;;;;;2603417;54;20301;31
2022/01/11 08:53:50;;;;;;;104.22;55.60;;;2.80;99.90;;;;;;2603285;54;20030;31
2022/01/11 08:56:25;;;;;;;114.70;57.10;;;2.80;99.90;;;;;;2603088;54;20768;31
2022/01/11 08:58:59;;;;;;;96.65;55.33;;;2.90;99.90;;;;;;2603192;54;20030;31
2022/01/11 09:01:44;;;;;;;95.47;51.63;;;2.90;99.90;;;;;;2603384;54;20923;31
2022/01/11 09:04:22;;;;;;;95.72;51.42;;;2.90;99.90;;;;;;2603435;54;20246;31
2022/01/11 09:07:14;;;;;;;91.32;49.17;;;2.80;99.90;;;;;;2603204;54;20049;31
2022/01/11 09:09:48;;;;;;;97.07;51.55;;;2.80;99.90;;;;;;2603313;54;20100;31
2022/01/11 09:12:24;;;;;;;96.10;47.58;;;2.80;99.90;;;;;;2603372;54;20049;31
2022/01/11 09:15:01;;;;;;;85.40;48.93;;;2.90;99.90;;;;;;2603208;54;20812;31
2022/01/11 09:17:40;;;;;;;87.43;47.95;;;2.80;99.90;;;;;;2607222;46;20737;31
2022/01/11 09:20:16;;;;;;;89.10;45.63;;;3.00;99.90;;;;;;2603259;54;20870;31
2022/01/11 09:22:53;;;;;;;90.32;49.55;;;3.20;99.90;;;;;;2603397;54;20057;31
2022/01/11 09:25:30;;;;;;;87.82;48.97;;;3.20;99.90;;;;;;2621776;46;20848;31
2022/01/11 09:28:13;;;;;;;88.90;48.03;;;3.30;99.90;;;;;;2603159;54;20756;31
2022/01/11 09:30:51;;;;;;;93.78;50.65;;;3.50;99.90;;;;;;2621401;46;20052;31
2022/01/11 09:33:28;;;;;;;90.55;48.95;;;3.50;99.90;;;;;;2603046;54;20026;31
2022/01/11 09:36:07;;;;;;;91.80;53.10;;;3.60;99.90;;;;;;2602969;54;20894;31
2022/01/11 09:38:42;;;;;;;97.80;55.28;;;3.60;99.90;;;;;;2603269;54;21150;31
2022/01/11 09:41:18;;;;;;;;;;;3.60;99.90;;;;;;2720352;39;22494;31
2022/01/11 09:43:54;;;;;;;111.17;63.53;;;3.70;99.90;;;;;;2602808;54;19941;31
2022/01/11 09:46:29;;;;;;;120.80;68.03;;;3.90;99.90;;;;;;2603005;54;20935;31
2022/01/11 09:49:10;;;;;;;114.50;65.78;;;4.20;99.90;;;;;;2602974;54;20325;31
2022/01/11 09:51:48;;;;;;;108.50;62.00;;;4.10;99.90;;;;;;2603118;54;20026;31
2022/01/11 09:54:20;;;;;;;102.65;56.05;;;4.10;99.90;;;;;;2603059;54;20033;31
2022/01/11 09:56:59;;;;;;;95.35;56.13;;;4.20;99.90;;;;;;2603849;54;19935;31
2022/01/11 09:59:35;;;;;;;100.33;58.73;;;4.30;99.90;;;;;;2603768;54;20101;31
2022/01/11 10:02:34;;;;;;;97.70;54.10;;;4.30;99.90;;;;;;2603835;54;20914;31
2022/01/11 10:05:28;;;;;;;102.40;56.85;;;4.30;99.90;;;;;;2603830;54;20238;31
2022/01/11 10:08:23;;;;;;;93.10;52.13;;;4.30;99.90;;;;;;2603791;54;20873;31
2022/01/11 10:11:03;;;;;;;93.00;54.13;;;4.20;99.90;;;;;;2603488;54;20250;31
2022/01/11 10:13:42;;;;;;;90.22;53.67;;;4.20;99.90;;;;;;2603765;54;20026;31
2022/01/11 10:16:30;;;;;;;87.65;50.88;;;4.10;99.90;;;;;;2603739;54;20026;31
2022/01/11 10:19:33;;;;;;;;;;;;;;;;;;;;;
2022/01/11 10:32:45;;;;;;;79.05;45.42;;;3.70;99.90;;;;;;2603273;54;20868;31
2022/01/11 10:39:17;;;;;;;60.10;34.27;;;3.70;99.90;;;;;;2603544;54;20932;31
2022/01/11 10:45:16;;;;;;;60.70;35.40;;;3.60;99.90;;;;;;2603207;54;20029;31
2022/01/11 10:57:59;;;;;;;78.03;42.93;;;3.40;99.90;;;;;;2621556;46;20086;31
2022/01/11 11:00:51;;;;;;;76.95;41.38;;;3.40;99.90;;;;;;2603859;54;20027;31
2022/01/11 11:03:41;;;;;;;78.07;42.75;;;3.40;99.90;;;;;;2603790;54;20826;31
2022/01/11 11:06:18;;;;;;;79.85;44.42;;;3.20;99.90;;;;;;2603260;54;20104;31
2022/01/11 11:08:58;;;;;;;64.80;37.88;;;3.20;99.90;;;;;;2603501;54;20101;31
2022/01/11 11:12:27;;;;;;;59.70;34.05;;;3.10;99.90;;;;;;2622034;46;20029;31
2022/01/11 11:15:13;;;;;;;60.65;31.50;;;2.90;99.90;;;;;;2603632;54;20027;31
2022/01/11 11:18:25;;;;;;;56.78;30.60;;;2.90;99.90;;;;;;2603557;54;20059;31
2022/01/11 11:21:26;;;;;;;55.83;31.80;;;2.70;99.90;;;;;;2603686;54;20789;31
2022/01/11 11:24:07;;;;;;;60.55;33.80;;;2.60;99.90;;;;;;2603773;54;20037;31
2022/01/11 11:26:46;;;;;;;67.57;36.40;;;2.50;99.90;;;;;;2621882;46;20027;31
2022/01/11 11:29:30;;;;;;;60.00;34.65;;;2.30;99.90;;;;;;2603539;54;20061;31
2022/01/11 11:32:32;;;;;;;73.60;39.10;;;2.30;99.90;;;;;;2603454;54;20026;31
2022/01/11 11:35:13;;;;;;;76.57;41.03;;;2.10;99.90;;;;;;2603402;54;20052;31
2022/01/11 11:37:50;;;;;;;72.97;41.92;;;2.00;99.90;;;;;;2603533;54;20157;31
2022/01/11 11:40:38;;;;;;;74.90;41.58;;;1.90;99.90;;;;;;2603354;54;20136;31
2022/01/11 11:43:25;;;;;;;79.53;44.47;;;1.90;99.90;;;;;;2603548;54;20031;31
2022/01/11 11:46:13;;;;;;;79.03;42.70;;;1.70;99.90;;;;;;2603589;54;20849;31
2022/01/11 11:48:56;;;;;;;77.22;43.40;;;1.70;99.90;;;;;;2603505;54;20022;31
2022/01/11 11:51:42;;;;;;;78.32;43.83;;;1.60;99.90;;;;;;2603363;54;20031;31
2022/01/11 11:54:23;;;;;;;72.40;40.28;;;1.60;99.90;;;;;;2621822;46;20964;31
2022/01/11 11:59:59;;;;;;;72.45;38.20;;;1.50;99.90;;;;;;2603627;54;20030;31
2022/01/11 12:02:45;;;;;;;60.58;35.53;;;1.50;99.90;;;;;;2603618;54;20030;31
2022/01/11 12:05:47;;;;;;;65.32;33.80;;;1.50;99.90;;;;;;2603568;54;21002;31
2022/01/11 12:08:36;;;;;;;59.30;33.60;;;1.40;99.90;;;;;;2603487;54;20089;31
2022/01/11 12:11:17;;;;;;;64.13;35.45;;;1.40;99.90;;;;;;2603395;54;20768;31
2022/01/11 12:13:55;;;;;;;62.70;34.60;;;1.30;99.90;;;;;;2603620;54;20038;31
2022/01/11 12:16:36;;;;;;;63.33;35.50;;;1.20;99.90;;;;;;2603408;54;20104;31
2022/01/11 12:19:44;;;;;;;63.58;33.10;;;1.20;99.90;;;;;;2621827;47;20022;31
2022/01/11 12:22:24;;;;;;;60.13;33.15;;;1.10;99.90;;;;;;2603323;54;20053;31
2022/01/11 12:25:12;;;;;;;64.05;33.35;;;1.10;99.90;;;;;;2602927;54;20038;31
2022/01/11 12:28:04;;;;;;;57.70;32.20;;;1.20;99.90;;;;;;2603287;54;20092;31
2022/01/11 12:33:18;;;;;;;56.55;31.38;;;1.10;99.90;;;;;;2603140;54;20144;31
2022/01/11 12:41:37;;;;;;;44.03;24.08;;;0.90;99.90;;;;;;2603311;54;19946;31
2022/01/11 12:44:27;;;;;;;44.03;24.40;;;0.90;99.90;;;;;;2603517;54;20152;31
2022/01/11 12:47:06;;;;;;;42.42;21.10;;;0.80;99.90;;;;;;2622112;46;20026;31
2022/01/11 12:49:52;;;;;;;30.43;16.43;;;0.80;99.90;;;;;;2603291;54;20038;31
2022/01/11 12:52:42;;;;;;;26.80;15.30;;;0.80;99.90;;;;;;2603142;54;20866;31
2022/01/11 12:57:51;;;;;;;35.22;17.90;;;0.70;99.90;;;;;;2603166;54;20030;31
2022/01/11 13:00:27;;;;;;;30.77;18.35;;;0.70;99.90;;;;;;2603359;54;20026;31
2022/01/11 13:03:08;;;;;;;34.83;18.80;;;0.60;99.90;;;;;;2602684;54;20845;31
2022/01/11 13:08:36;;;;;;;40.92;21.25;;;0.60;99.90;;;;;;2603424;54;20108;31
2022/01/11 13:11:25;;;;;;;51.00;27.05;;;0.60;99.90;;;;;;2603264;54;20074;31
2022/01/11 13:14:31;;;;;;;46.97;26.43;;;0.60;99.90;;;;;;2621644;46;20026;31
2022/01/11 13:17:07;;;;;;;49.75;27.77;;;0.90;99.90;;;;;;2603218;54;20744;31
2022/01/11 13:19:43;;;;;;;;;;;0.90;99.90;;;;;;2603352;54;20822;31
2022/01/11 13:22:24;;;;;;;55.25;31.05;;;0.90;99.90;;;;;;2603082;54;20758;31
2022/01/11 13:32:04;;;;;;;56.60;31.70;;;0.80;99.90;;;;;;2603178;54;20832;31
2022/01/11 13:35:05;;;;;;;;;;;;;;;;;;;;;
2022/01/11 13:47:38;;;;;;;56.92;30.60;;;0.50;99.90;;;;;;2602470;54;20050;31
2022/01/11 14:00:58;;;;;;;60.20;31.67;;;0.40;99.90;;;;;;2602899;54;20866;31
2022/01/11 14:03:52;;;;;;;59.65;33.03;;;0.40;99.90;;;;;;2603151;54;19941;31
2022/01/11 14:06:29;;;;;;;57.93;32.40;;;0.30;99.90;;;;;;2606806;47;20914;31
2022/01/11 14:15:05;;;;;;;68.10;35.57;;;0.30;99.90;;;;;;2603001;54;20106;31
2022/01/11 14:18:00;;;;;;;68.80;36.00;;;0.20;99.90;;;;;;2603041;54;20795;31
2022/01/11 14:21:05;;;;;;;70.55;37.63;;;0.30;99.90;;;;;;2602927;54;20660;31
2022/01/11 14:30:02;;;;;;;70.60;37.40;;;0.20;99.90;;;;;;2602912;54;20967;31
2022/01/11 14:32:57;;;;;;;71.13;37.30;;;0.20;99.90;;;;;;2602899;54;20031;31
2022/01/11 14:38:49;;;;;;;70.72;38.85;;;0.10;99.90;;;;;;2603094;54;20023;31
2022/01/11 14:41:29;;;;;;;76.53;40.27;;;0.10;99.90;;;;;;2603274;54;20931;31
2022/01/11 14:44:10;;;;;;;83.22;42.83;;;0.10;99.90;;;;;;2621587;46;20242;31
2022/01/11 14:46:49;;;;;;;73.70;40.25;;;0.00;99.90;;;;;;2603595;54;20027;31
2022/01/11 14:52:20;;;;;;;86.38;46.60;;;0.00;99.90;;;;;;2602992;54;20879;31
2022/01/11 14:55:10;;;;;;;93.45;49.25;;;0.00;99.90;;;;;;2603664;54;20774;31
2022/01/11 14:58:03;;;;;;;83.93;47.85;;;0.00;99.90;;;;;;2603394;54;20089;31
2022/01/11 15:00:46;;;;;;;88.10;49.92;;;0.00;99.90;;;;;;2611680;46;20053;31
2022/01/11 15:03:35;;;;;;;92.18;49.55;;;0.00;99.90;;;;;;2603712;54;20026;31
2022/01/11 15:06:15;;;;;;;97.53;51.00;;;0.00;99.90;;;;;;2622417;46;20836;31
2022/01/11 15:08:52;;;;;;;91.07;53.05;;;0.00;99.90;;;;;;2603903;54;20053;31
2022/01/11 15:11:25;;;;;;;98.25;53.70;;;0.00;99.90;;;;;;2603401;54;20068;31
2022/01/11 15:14:10;;;;;;;102.90;53.78;;;0.00;99.90;;;;;;2622158;46;20169;31
2022/01/11 15:16:46;;;;;;;99.65;56.42;;;-0.10;99.90;;;;;;2603568;54;20113;31
2022/01/11 15:19:23;;;;;;;109.15;57.90;;;-0.10;99.90;;;;;;2603571;54;20089;31
2022/01/11 15:21:59;;;;;;;100.40;55.75;;;-0.10;99.90;;;;;;2603586;54;20030;31
2022/01/11 15:24:38;;;;;;;99.97;52.35;;;-0.20;99.90;;;;;;2621969;46;20081;31
2022/01/11 15:27:18;;;;;;;106.43;56.05;;;-0.20;99.90;;;;;;2603591;54;20096;31
2022/01/11 15:29:56;;;;;;;101.47;53.40;;;-0.20;99.90;;;;;;2621496;46;20905;31
2022/01/11 15:32:31;;;;;;;97.97;53.22;;;-0.30;99.90;;;;;;2603484;54;21161;31
2022/01/11 15:35:04;;;;;;;96.50;52.78;;;-0.40;99.90;;;;;;2622165;46;20033;31
2022/01/11 15:37:44;;;;;;;91.15;50.25;;;-0.40;99.90;;;;;;2621683;46;20880;31
2022/01/11 15:40:21;;;;;;;95.45;51.88;;;-0.40;99.90;;;;;;2603707;54;20859;31
2022/01/11 15:42:55;;;;;;;98.50;52.53;;;-0.40;99.90;;;;;;2765082;31;20024;31
2022/01/11 15:45:34;;;;;;;96.45;49.20;;;-0.40;99.90;;;;;;2622074;46;20929;31
2022/01/11 15:48:09;;;;;;;86.68;46.22;;;-0.50;99.90;;;;;;2603819;54;20138;31
2022/01/11 15:50:43;;;;;;;88.10;47.72;;;-0.40;99.90;;;;;;2603571;54;20030;31
2022/01/11 15:53:19;;;;;;;83.45;46.10;;;-0.60;99.90;;;;;;2603361;54;20026;31
2022/01/11 15:55:56;;;;;;;87.72;46.85;;;-0.50;99.90;;;;;;2603624;54;20032;31
2022/01/11 15:58:32;;;;;;;93.40;48.70;;;-0.60;99.90;;;;;;2603027;54;20014;31
2022/01/11 16:01:09;;;;;;;78.07;43.10;;;-0.60;99.90;;;;;;2620801;46;20027;31
2022/01/11 16:03:43;;;;;;;91.97;50.23;;;-0.70;99.90;;;;;;2603563;54;20250;31
2022/01/11 16:06:18;;;;;;;92.07;49.40;;;-0.70;99.90;;;;;;2765179;31;20045;31
2022/01/11 16:08:54;;;;;;;86.70;49.03;;;-0.70;99.90;;;;;;2603435;54;20897;31
2022/01/11 16:11:28;;;;;;;91.22;48.33;;;-0.80;99.90;;;;;;2603245;54;20896;31
2022/01/11 16:14:03;;;;;;;91.18;47.83;;;-0.90;99.90;;;;;;2621884;46;20026;31
2022/01/11 16:16:57;;;;;;;90.65;48.67;;;-0.90;99.90;;;;;;2603313;54;20031;31
2022/01/11 16:19:32;;;;;;;90.35;43.90;;;-1.00;99.90;;;;;;2603605;54;20032;31
2022/01/11 16:22:10;;;;;;;94.57;48.13;;;-1.10;99.90;;;;;;2621732;46;20089;31
2022/01/11 16:24:46;;;;;;;86.07;45.20;;;-1.10;99.90;;;;;;2603328;54;20857;31
2022/01/11 16:27:21;;;;;;;;;;;-1.10;99.90;;;;;;2622210;46;20038;31
2022/01/11 16:30:00;;;;;;;78.05;42.17;;;-1.10;99.90;;;;;;2603534;54;20001;31
2022/01/11 16:32:47;;;;;;;82.20;43.33;;;-1.20;99.90;;;;;;2621685;46;20041;31
2022/01/11 16:35:23;;;;;;;78.80;39.60;;;-1.20;99.90;;;;;;2603367;54;20913;31
2022/01/11 16:38:01;;;;;;;82.10;44.03;;;-1.20;99.90;;;;;;2603608;54;20867;31
2022/01/11 16:43:24;;;;;;;86.65;45.80;;;-1.30;99.90;;;;;;2603263;54;20100;31
2022/01/11 16:45:59;;;;;;;99.25;50.75;;;-1.30;99.90;;;;;;2603335;54;20026;31
2022/01/11 16:48:33;;;;;;;110.07;57.20;;;-1.30;99.90;;;;;;2622100;46;20033;31
2022/01/11 16:51:14;;;;;;;98.10;52.05;;;-1.30;99.90;;;;;;2603533;54;20031;31
2022/01/11 16:53:50;;;;;;;98.15;51.90;;;-1.40;99.90;;;;;;2621541;46;20030;31
2022/01/11 16:56:28;;;;;;;119.03;60.75;;;-1.30;99.90;;;;;;2603089;54;20030;31
2022/01/11 16:59:01;;;;;;;115.97;62.22;;;-1.20;99.90;;;;;;2603283;54;20023;31
2022/01/11 17:01:37;;;;;;;160.65;74.30;;;-1.20;99.90;;;;;;2603513;54;20889;31
2022/01/11 17:04:13;;;;;;;151.97;74.50;;;-1.20;99.90;;;;;;2602768;54;20892;31
2022/01/11 17:06:55;;;;;;;149.93;74.50;;;-1.30;99.90;;;;;;2603395;54;21194;31